sensor_id;sensor_type;location;lat;lon;timestamp;P1;durP1;ratioP1;P2;durP2;ratioP2
39930;SDS011;26635;-35.248;149.138;2023-05-06T00:00:37;5.82;;;3.58;;
39930;SDS011;26635;-35.248;149.138;2023-05-06T00:03:09;5.20;;;3.92;;
39930;SDS011;26635;-35.248;149.138;2023-05-06T00:05:39;9.30;;;3.95;;
39930;SDS011;26635;-35.248;149.138;2023-05-06T00:08:11;6.47;;;3.83;;
39930;SDS011;26635;-35.248;149.138;2023-05-06T00:10:48;9.13;;;3.17;;
39930;SDS011;26635;-35.248;149.138;2023-05-06T00:13:19;5.68;;;3.40;;
39930;SDS011;26635;-35.248;149.138;2023-05-06T00:15:50;4.82;;;2.60;;
39930;SDS011;26635;-35.248;149.138;2023-05-06T00:18:21;8.30;;;3.40;;
39930;SDS011;26635;-35.248;149.138;2023-05-06T00:20:52;4.97;;;3.08;;
39930;SDS011;26635;-35.248;149.138;2023-05-06T00:23:24;6.22;;;3.20;;
39930;SDS011;26635;-35.248;149.138;2023-05-06T00:25:55;8.20;;;3.35;;
39930;SDS011;26635;-35.248;149.138;2023-05-06T00:28:27;5.70;;;2.55;;
39930;SDS011;26635;-35.248;149.138;2023-05-06T00:30:58;5.38;;;2.50;;
39930;SDS011;26635;-35.248;149.138;2023-05-06T00:33:34;7.97;;;2.10;;
39930;SDS011;26635;-35.248;149.138;2023-05-06T00:36:04;3.90;;;2.15;;
39930;SDS011;26635;-35.248;149.138;2023-05-06T00:38:37;3.17;;;1.67;;
39930;SDS011;26635;-35.248;149.138;2023-05-06T00:41:14;3.53;;;1.95;;
39930;SDS011;26635;-35.248;149.138;2023-05-06T00:43:49;4.53;;;2.40;;
39930;SDS011;26635;-35.248;149.138;2023-05-06T00:46:33;2.72;;;1.50;;
39930;SDS011;26635;-35.248;149.138;2023-05-06T00:49:04;5.03;;;1.88;;
39930;SDS011;26635;-35.248;149.138;2023-05-06T00:51:35;4.35;;;1.63;;
39930;SDS011;26635;-35.248;149.138;2023-05-06T00:54:06;3.80;;;1.50;;
39930;SDS011;26635;-35.248;149.138;2023-05-06T00:56:38;3.78;;;1.40;;
39930;SDS011;26635;-35.248;149.138;2023-05-06T00:59:10;3.80;;;1.45;;
39930;SDS011;26635;-35.248;149.138;2023-05-06T01:01:42;6.40;;;1.30;;
39930;SDS011;26635;-35.248;149.138;2023-05-06T01:04:12;3.83;;;1.48;;
39930;SDS011;26635;-35.248;149.138;2023-05-06T01:06:49;4.18;;;1.48;;
39930;SDS011;26635;-35.248;149.138;2023-05-06T01:09:41;3.10;;;1.27;;
39930;SDS011;26635;-35.248;149.138;2023-05-06T01:12:37;5.05;;;1.77;;
39930;SDS011;26635;-35.248;149.138;2023-05-06T01:15:39;4.10;;;1.30;;
39930;SDS011;26635;-35.248;149.138;2023-05-06T01:18:15;5.78;;;1.70;;
39930;SDS011;26635;-35.248;149.138;2023-05-06T01:20:51;4.18;;;1.55;;
39930;SDS011;26635;-35.248;149.138;2023-05-06T01:23:23;4.43;;;1.88;;
39930;SDS011;26635;-35.248;149.138;2023-05-06T01:25:55;5.75;;;2.53;;
39930;SDS011;26635;-35.248;149.138;2023-05-06T01:28:26;3.92;;;1.63;;
39930;SDS011;26635;-35.248;149.138;2023-05-06T01:30:59;3.95;;;1.80;;
39930;SDS011;26635;-35.248;149.138;2023-05-06T01:33:43;3.53;;;1.52;;
39930;SDS011;26635;-35.248;149.138;2023-05-06T01:41:33;5.75;;;2.20;;
39930;SDS011;26635;-35.248;149.138;2023-05-06T01:44:08;9.57;;;3.25;;
39930;SDS011;26635;-35.248;149.138;2023-05-06T01:46:43;4.10;;;1.40;;
39930;SDS011;26635;-35.248;149.138;2023-05-06T01:49:40;3.25;;;1.02;;
39930;SDS011;26635;-35.248;149.138;2023-05-06T01:52:15;3.03;;;1.83;;
39930;SDS011;26635;-35.248;149.138;2023-05-06T01:54:47;4.78;;;2.00;;
39930;SDS011;26635;-35.248;149.138;2023-05-06T01:57:18;3.72;;;1.40;;
39930;SDS011;26635;-35.248;149.138;2023-05-06T01:59:50;4.28;;;1.77;;
39930;SDS011;26635;-35.248;149.138;2023-05-06T02:02:22;4.10;;;1.10;;
39930;SDS011;26635;-35.248;149.138;2023-05-06T02:04:53;3.10;;;1.13;;
39930;SDS011;26635;-35.248;149.138;2023-05-06T02:07:25;4.22;;;1.38;;
39930;SDS011;26635;-35.248;149.138;2023-05-06T02:09:56;5.72;;;1.10;;
39930;SDS011;26635;-35.248;149.138;2023-05-06T02:12:27;5.95;;;1.75;;
39930;SDS011;26635;-35.248;149.138;2023-05-06T02:14:57;2.53;;;1.40;;
39930;SDS011;26635;-35.248;149.138;2023-05-06T02:17:28;6.88;;;1.20;;
39930;SDS011;26635;-35.248;149.138;2023-05-06T02:20:00;3.22;;;1.42;;
39930;SDS011;26635;-35.248;149.138;2023-05-06T02:22:31;2.67;;;1.10;;
39930;SDS011;26635;-35.248;149.138;2023-05-06T02:25:04;2.40;;;1.20;;
39930;SDS011;26635;-35.248;149.138;2023-05-06T02:27:37;4.22;;;1.13;;
39930;SDS011;26635;-35.248;149.138;2023-05-06T02:30:12;2.50;;;1.00;;
39930;SDS011;26635;-35.248;149.138;2023-05-06T02:32:43;5.63;;;0.98;;
39930;SDS011;26635;-35.248;149.138;2023-05-06T02:35:16;2.17;;;0.80;;
39930;SDS011;26635;-35.248;149.138;2023-05-06T02:37:47;5.25;;;1.50;;
39930;SDS011;26635;-35.248;149.138;2023-05-06T02:40:18;3.67;;;1.08;;
39930;SDS011;26635;-35.248;149.138;2023-05-06T02:42:48;6.00;;;1.40;;
39930;SDS011;26635;-35.248;149.138;2023-05-06T02:45:21;2.10;;;0.80;;
39930;SDS011;26635;-35.248;149.138;2023-05-06T02:47:57;2.10;;;0.70;;
39930;SDS011;26635;-35.248;149.138;2023-05-06T02:50:27;3.78;;;1.00;;
39930;SDS011;26635;-35.248;149.138;2023-05-06T02:52:58;5.43;;;0.88;;
39930;SDS011;26635;-35.248;149.138;2023-05-06T02:55:29;3.45;;;1.35;;
39930;SDS011;26635;-35.248;149.138;2023-05-06T02:58:01;2.67;;;1.00;;
39930;SDS011;26635;-35.248;149.138;2023-05-06T03:00:32;2.08;;;0.80;;
39930;SDS011;26635;-35.248;149.138;2023-05-06T03:03:03;2.22;;;0.80;;
39930;SDS011;26635;-35.248;149.138;2023-05-06T03:05:33;3.45;;;0.90;;
39930;SDS011;26635;-35.248;149.138;2023-05-06T03:08:06;2.30;;;1.02;;
39930;SDS011;26635;-35.248;149.138;2023-05-06T03:10:37;2.67;;;1.40;;
39930;SDS011;26635;-35.248;149.138;2023-05-06T03:13:08;3.25;;;0.85;;
39930;SDS011;26635;-35.248;149.138;2023-05-06T03:15:39;3.75;;;1.33;;
39930;SDS011;26635;-35.248;149.138;2023-05-06T03:18:10;4.22;;;1.27;;
39930;SDS011;26635;-35.248;149.138;2023-05-06T03:20:42;3.13;;;0.73;;
39930;SDS011;26635;-35.248;149.138;2023-05-06T03:23:20;4.22;;;1.00;;
39930;SDS011;26635;-35.248;149.138;2023-05-06T03:25:51;2.40;;;1.00;;
39930;SDS011;26635;-35.248;149.138;2023-05-06T03:28:23;3.33;;;0.90;;
39930;SDS011;26635;-35.248;149.138;2023-05-06T03:30:54;3.13;;;0.77;;
39930;SDS011;26635;-35.248;149.138;2023-05-06T03:33:30;2.83;;;0.80;;
39930;SDS011;26635;-35.248;149.138;2023-05-06T03:36:00;3.80;;;0.80;;
39930;SDS011;26635;-35.248;149.138;2023-05-06T03:38:32;2.97;;;1.05;;
39930;SDS011;26635;-35.248;149.138;2023-05-06T03:41:02;2.40;;;0.80;;
39930;SDS011;26635;-35.248;149.138;2023-05-06T03:43:39;2.17;;;1.05;;
39930;SDS011;26635;-35.248;149.138;2023-05-06T03:46:15;3.20;;;0.73;;
39930;SDS011;26635;-35.248;149.138;2023-05-06T03:48:59;2.67;;;0.60;;
39930;SDS011;26635;-35.248;149.138;2023-05-06T03:51:51;1.80;;;0.60;;
39930;SDS011;26635;-35.248;149.138;2023-05-06T03:54:34;3.17;;;1.00;;
39930;SDS011;26635;-35.248;149.138;2023-05-06T03:57:07;5.38;;;1.90;;
39930;SDS011;26635;-35.248;149.138;2023-05-06T03:59:38;3.67;;;1.30;;
39930;SDS011;26635;-35.248;149.138;2023-05-06T04:02:13;3.55;;;0.73;;
39930;SDS011;26635;-35.248;149.138;2023-05-06T04:04:56;2.13;;;0.60;;
39930;SDS011;26635;-35.248;149.138;2023-05-06T04:07:38;2.10;;;0.70;;
39930;SDS011;26635;-35.248;149.138;2023-05-06T04:10:10;2.33;;;0.80;;
39930;SDS011;26635;-35.248;149.138;2023-05-06T04:12:41;4.35;;;1.45;;
39930;SDS011;26635;-35.248;149.138;2023-05-06T04:15:17;2.00;;;0.57;;
39930;SDS011;26635;-35.248;149.138;2023-05-06T04:17:50;2.25;;;0.73;;
39930;SDS011;26635;-35.248;149.138;2023-05-06T04:20:27;3.90;;;0.63;;
39930;SDS011;26635;-35.248;149.138;2023-05-06T04:23:09;3.15;;;0.85;;
39930;SDS011;26635;-35.248;149.138;2023-05-06T04:25:46;2.63;;;1.02;;
39930;SDS011;26635;-35.248;149.138;2023-05-06T04:28:22;2.10;;;0.75;;
39930;SDS011;26635;-35.248;149.138;2023-05-06T04:30:53;1.40;;;0.60;;
39930;SDS011;26635;-35.248;149.138;2023-05-06T04:33:33;2.00;;;0.50;;
39930;SDS011;26635;-35.248;149.138;2023-05-06T04:36:19;2.08;;;0.70;;
39930;SDS011;26635;-35.248;149.138;2023-05-06T04:38:55;2.42;;;0.60;;
39930;SDS011;26635;-35.248;149.138;2023-05-06T04:41:30;1.65;;;0.63;;
39930;SDS011;26635;-35.248;149.138;2023-05-06T04:44:05;3.53;;;1.08;;
39930;SDS011;26635;-35.248;149.138;2023-05-06T04:46:52;2.33;;;0.60;;
39930;SDS011;26635;-35.248;149.138;2023-05-06T04:49:35;4.88;;;0.50;;
39930;SDS011;26635;-35.248;149.138;2023-05-06T04:52:07;1.40;;;0.50;;
39930;SDS011;26635;-35.248;149.138;2023-05-06T04:54:40;4.97;;;1.52;;
39930;SDS011;26635;-35.248;149.138;2023-05-06T04:57:23;2.10;;;0.90;;
39930;SDS011;26635;-35.248;149.138;2023-05-06T04:59:54;2.05;;;0.50;;
39930;SDS011;26635;-35.248;149.138;2023-05-06T05:02:38;2.95;;;0.70;;
39930;SDS011;26635;-35.248;149.138;2023-05-06T05:05:16;2.13;;;0.47;;
39930;SDS011;26635;-35.248;149.138;2023-05-06T05:07:47;3.85;;;0.60;;
39930;SDS011;26635;-35.248;149.138;2023-05-06T05:10:18;2.45;;;0.70;;
39930;SDS011;26635;-35.248;149.138;2023-05-06T05:13:04;2.92;;;0.50;;
39930;SDS011;26635;-35.248;149.138;2023-05-06T05:15:36;2.85;;;0.55;;
39930;SDS011;26635;-35.248;149.138;2023-05-06T05:18:07;1.58;;;0.60;;
39930;SDS011;26635;-35.248;149.138;2023-05-06T05:20:40;5.97;;;0.93;;
39930;SDS011;26635;-35.248;149.138;2023-05-06T05:23:11;2.83;;;0.38;;
39930;SDS011;26635;-35.248;149.138;2023-05-06T05:25:48;2.75;;;0.80;;
39930;SDS011;26635;-35.248;149.138;2023-05-06T05:28:23;2.85;;;0.70;;
39930;SDS011;26635;-35.248;149.138;2023-05-06T05:30:59;2.17;;;1.05;;
39930;SDS011;26635;-35.248;149.138;2023-05-06T05:33:50;2.65;;;0.55;;
39930;SDS011;26635;-35.248;149.138;2023-05-06T05:36:26;5.00;;;1.00;;
39930;SDS011;26635;-35.248;149.138;2023-05-06T05:38:57;3.70;;;1.00;;
39930;SDS011;26635;-35.248;149.138;2023-05-06T05:41:31;4.78;;;0.70;;
39930;SDS011;26635;-35.248;149.138;2023-05-06T05:44:14;4.05;;;0.60;;
39930;SDS011;26635;-35.248;149.138;2023-05-06T05:46:46;2.03;;;0.80;;
39930;SDS011;26635;-35.248;149.138;2023-05-06T05:49:21;4.57;;;0.95;;
39930;SDS011;26635;-35.248;149.138;2023-05-06T05:51:52;2.40;;;0.73;;
39930;SDS011;26635;-35.248;149.138;2023-05-06T05:54:24;2.30;;;0.88;;
39930;SDS011;26635;-35.248;149.138;2023-05-06T05:56:59;3.85;;;0.40;;
39930;SDS011;26635;-35.248;149.138;2023-05-06T05:59:33;2.45;;;0.68;;
39930;SDS011;26635;-35.248;149.138;2023-05-06T06:02:11;1.88;;;0.73;;
39930;SDS011;26635;-35.248;149.138;2023-05-06T06:04:42;2.38;;;0.73;;
39930;SDS011;26635;-35.248;149.138;2023-05-06T06:07:15;2.55;;;0.77;;
39930;SDS011;26635;-35.248;149.138;2023-05-06T06:09:54;3.25;;;0.70;;
39930;SDS011;26635;-35.248;149.138;2023-05-06T06:12:25;1.98;;;0.65;;
39930;SDS011;26635;-35.248;149.138;2023-05-06T06:14:56;4.80;;;1.15;;
39930;SDS011;26635;-35.248;149.138;2023-05-06T06:17:32;2.53;;;0.90;;
39930;SDS011;26635;-35.248;149.138;2023-05-06T06:20:04;2.10;;;0.90;;
39930;SDS011;26635;-35.248;149.138;2023-05-06T06:22:36;1.40;;;0.40;;
39930;SDS011;26635;-35.248;149.138;2023-05-06T06:25:07;1.42;;;0.50;;
39930;SDS011;26635;-35.248;149.138;2023-05-06T06:27:38;2.90;;;0.77;;
39930;SDS011;26635;-35.248;149.138;2023-05-06T06:30:09;3.13;;;1.08;;
39930;SDS011;26635;-35.248;149.138;2023-05-06T06:32:47;4.07;;;0.82;;
39930;SDS011;26635;-35.248;149.138;2023-05-06T06:35:19;2.90;;;1.02;;
39930;SDS011;26635;-35.248;149.138;2023-05-06T06:37:52;3.72;;;0.80;;
39930;SDS011;26635;-35.248;149.138;2023-05-06T06:40:26;2.60;;;0.70;;
39930;SDS011;26635;-35.248;149.138;2023-05-06T06:43:00;1.55;;;0.85;;
39930;SDS011;26635;-35.248;149.138;2023-05-06T06:45:31;6.10;;;0.95;;
39930;SDS011;26635;-35.248;149.138;2023-05-06T06:48:02;3.65;;;0.93;;
39930;SDS011;26635;-35.248;149.138;2023-05-06T06:50:35;3.13;;;0.98;;
39930;SDS011;26635;-35.248;149.138;2023-05-06T06:56:09;4.47;;;0.80;;
39930;SDS011;26635;-35.248;149.138;2023-05-06T06:58:48;3.67;;;1.10;;
39930;SDS011;26635;-35.248;149.138;2023-05-06T07:01:19;2.50;;;1.02;;
39930;SDS011;26635;-35.248;149.138;2023-05-06T07:03:50;2.05;;;0.93;;
39930;SDS011;26635;-35.248;149.138;2023-05-06T07:06:20;4.75;;;0.90;;
39930;SDS011;26635;-35.248;149.138;2023-05-06T07:09:03;2.58;;;0.70;;
39930;SDS011;26635;-35.248;149.138;2023-05-06T07:11:33;2.38;;;0.60;;
39930;SDS011;26635;-35.248;149.138;2023-05-06T07:14:04;4.93;;;1.30;;
39930;SDS011;26635;-35.248;149.138;2023-05-06T07:16:35;3.30;;;0.70;;
39930;SDS011;26635;-35.248;149.138;2023-05-06T07:19:07;1.95;;;0.75;;
39930;SDS011;26635;-35.248;149.138;2023-05-06T07:21:41;6.47;;;1.08;;
39930;SDS011;26635;-35.248;149.138;2023-05-06T07:24:17;1.65;;;0.82;;
39930;SDS011;26635;-35.248;149.138;2023-05-06T07:27:02;3.28;;;0.70;;
39930;SDS011;26635;-35.248;149.138;2023-05-06T07:29:33;3.55;;;0.80;;
39930;SDS011;26635;-35.248;149.138;2023-05-06T07:32:10;5.05;;;1.10;;
39930;SDS011;26635;-35.248;149.138;2023-05-06T07:34:41;3.83;;;1.30;;
39930;SDS011;26635;-35.248;149.138;2023-05-06T07:37:14;5.32;;;0.98;;
39930;SDS011;26635;-35.248;149.138;2023-05-06T07:39:44;4.25;;;1.13;;
39930;SDS011;26635;-35.248;149.138;2023-05-06T07:42:20;2.28;;;0.65;;
39930;SDS011;26635;-35.248;149.138;2023-05-06T07:44:53;2.97;;;1.58;;
39930;SDS011;26635;-35.248;149.138;2023-05-06T07:47:29;6.28;;;1.00;;
39930;SDS011;26635;-35.248;149.138;2023-05-06T07:50:00;3.47;;;0.70;;
39930;SDS011;26635;-35.248;149.138;2023-05-06T07:52:33;3.00;;;0.57;;
39930;SDS011;26635;-35.248;149.138;2023-05-06T07:55:04;3.80;;;0.98;;
39930;SDS011;26635;-35.248;149.138;2023-05-06T07:57:48;2.67;;;0.50;;
39930;SDS011;26635;-35.248;149.138;2023-05-06T08:00:22;5.97;;;0.82;;
39930;SDS011;26635;-35.248;149.138;2023-05-06T08:02:52;3.15;;;0.80;;
39930;SDS011;26635;-35.248;149.138;2023-05-06T08:05:23;2.42;;;0.85;;
39930;SDS011;26635;-35.248;149.138;2023-05-06T08:07:54;2.42;;;0.77;;
39930;SDS011;26635;-35.248;149.138;2023-05-06T08:10:24;7.70;;;1.73;;
39930;SDS011;26635;-35.248;149.138;2023-05-06T08:12:55;2.13;;;0.95;;
39930;SDS011;26635;-35.248;149.138;2023-05-06T08:15:25;5.05;;;1.00;;
39930;SDS011;26635;-35.248;149.138;2023-05-06T08:17:56;3.42;;;1.25;;
39930;SDS011;26635;-35.248;149.138;2023-05-06T08:20:47;3.50;;;0.90;;
39930;SDS011;26635;-35.248;149.138;2023-05-06T08:23:17;4.97;;;0.90;;
39930;SDS011;26635;-35.248;149.138;2023-05-06T08:25:48;3.90;;;1.10;;
39930;SDS011;26635;-35.248;149.138;2023-05-06T08:28:19;3.70;;;1.20;;
39930;SDS011;26635;-35.248;149.138;2023-05-06T08:30:51;3.70;;;1.08;;
39930;SDS011;26635;-35.248;149.138;2023-05-06T08:33:21;3.30;;;0.80;;
39930;SDS011;26635;-35.248;149.138;2023-05-06T08:35:51;3.33;;;0.90;;
39930;SDS011;26635;-35.248;149.138;2023-05-06T08:38:28;3.10;;;0.90;;
39930;SDS011;26635;-35.248;149.138;2023-05-06T08:40:59;5.82;;;1.85;;
39930;SDS011;26635;-35.248;149.138;2023-05-06T08:43:39;7.68;;;1.33;;
39930;SDS011;26635;-35.248;149.138;2023-05-06T08:46:12;6.60;;;2.10;;
39930;SDS011;26635;-35.248;149.138;2023-05-06T08:48:43;5.00;;;1.00;;
39930;SDS011;26635;-35.248;149.138;2023-05-06T08:51:14;4.05;;;1.02;;
39930;SDS011;26635;-35.248;149.138;2023-05-06T08:53:46;3.65;;;1.50;;
39930;SDS011;26635;-35.248;149.138;2023-05-06T08:56:16;2.40;;;1.00;;
39930;SDS011;26635;-35.248;149.138;2023-05-06T08:58:51;4.53;;;1.10;;
39930;SDS011;26635;-35.248;149.138;2023-05-06T09:01:24;6.22;;;1.17;;
39930;SDS011;26635;-35.248;149.138;2023-05-06T09:03:58;3.55;;;1.00;;
39930;SDS011;26635;-35.248;149.138;2023-05-06T09:06:31;4.10;;;0.90;;
39930;SDS011;26635;-35.248;149.138;2023-05-06T09:09:02;3.08;;;0.95;;
39930;SDS011;26635;-35.248;149.138;2023-05-06T09:11:34;5.43;;;1.20;;
39930;SDS011;26635;-35.248;149.138;2023-05-06T09:14:10;5.07;;;0.77;;
39930;SDS011;26635;-35.248;149.138;2023-05-06T09:16:47;4.32;;;1.13;;
39930;SDS011;26635;-35.248;149.138;2023-05-06T09:19:21;4.32;;;1.23;;
39930;SDS011;26635;-35.248;149.138;2023-05-06T09:21:51;3.10;;;1.08;;
39930;SDS011;26635;-35.248;149.138;2023-05-06T09:24:22;4.07;;;0.90;;
39930;SDS011;26635;-35.248;149.138;2023-05-06T09:26:53;7.45;;;1.35;;
39930;SDS011;26635;-35.248;149.138;2023-05-06T09:29:25;3.00;;;1.20;;
39930;SDS011;26635;-35.248;149.138;2023-05-06T09:31:56;2.90;;;0.80;;
39930;SDS011;26635;-35.248;149.138;2023-05-06T09:34:26;2.78;;;0.90;;
39930;SDS011;26635;-35.248;149.138;2023-05-06T09:36:57;5.90;;;0.98;;
39930;SDS011;26635;-35.248;149.138;2023-05-06T09:39:28;3.35;;;1.05;;
39930;SDS011;26635;-35.248;149.138;2023-05-06T09:41:59;4.85;;;0.90;;
39930;SDS011;26635;-35.248;149.138;2023-05-06T09:44:30;5.15;;;1.00;;
39930;SDS011;26635;-35.248;149.138;2023-05-06T09:47:01;4.07;;;0.85;;
39930;SDS011;26635;-35.248;149.138;2023-05-06T09:49:32;7.50;;;1.63;;
39930;SDS011;26635;-35.248;149.138;2023-05-06T09:52:05;2.65;;;1.10;;
39930;SDS011;26635;-35.248;149.138;2023-05-06T09:54:37;3.08;;;0.75;;
39930;SDS011;26635;-35.248;149.138;2023-05-06T09:57:09;5.30;;;1.33;;
39930;SDS011;26635;-35.248;149.138;2023-05-06T09:59:44;4.25;;;1.90;;
39930;SDS011;26635;-35.248;149.138;2023-05-06T10:02:17;2.67;;;0.80;;
39930;SDS011;26635;-35.248;149.138;2023-05-06T10:04:49;4.20;;;0.85;;
39930;SDS011;26635;-35.248;149.138;2023-05-06T10:07:23;5.47;;;1.33;;
39930;SDS011;26635;-35.248;149.138;2023-05-06T10:09:56;2.78;;;0.73;;
39930;SDS011;26635;-35.248;149.138;2023-05-06T10:12:28;3.08;;;0.88;;
39930;SDS011;26635;-35.248;149.138;2023-05-06T10:15:00;4.50;;;1.35;;
39930;SDS011;26635;-35.248;149.138;2023-05-06T10:17:31;3.53;;;1.83;;
39930;SDS011;26635;-35.248;149.138;2023-05-06T10:20:03;3.10;;;1.50;;
39930;SDS011;26635;-35.248;149.138;2023-05-06T10:22:47;4.25;;;1.15;;
39930;SDS011;26635;-35.248;149.138;2023-05-06T10:28:11;3.70;;;1.33;;
39930;SDS011;26635;-35.248;149.138;2023-05-06T10:30:57;2.17;;;0.63;;
39930;SDS011;26635;-35.248;149.138;2023-05-06T10:33:29;1.85;;;0.60;;
39930;SDS011;26635;-35.248;149.138;2023-05-06T10:38:48;3.78;;;0.88;;
39930;SDS011;26635;-35.248;149.138;2023-05-06T10:41:29;2.15;;;0.50;;
39930;SDS011;26635;-35.248;149.138;2023-05-06T10:44:01;1.27;;;0.40;;
39930;SDS011;26635;-35.248;149.138;2023-05-06T10:46:32;2.00;;;0.60;;
39930;SDS011;26635;-35.248;149.138;2023-05-06T10:49:27;2.13;;;0.50;;
39930;SDS011;26635;-35.248;149.138;2023-05-06T10:54:48;1.40;;;0.40;;
39930;SDS011;26635;-35.248;149.138;2023-05-06T10:57:20;3.00;;;0.70;;
39930;SDS011;26635;-35.248;149.138;2023-05-06T10:59:54;0.80;;;0.50;;
39930;SDS011;26635;-35.248;149.138;2023-05-06T11:02:25;2.17;;;0.80;;
39930;SDS011;26635;-35.248;149.138;2023-05-06T11:05:00;3.22;;;0.60;;
39930;SDS011;26635;-35.248;149.138;2023-05-06T11:07:32;3.95;;;0.70;;
39930;SDS011;26635;-35.248;149.138;2023-05-06T11:10:03;3.92;;;0.93;;
39930;SDS011;26635;-35.248;149.138;2023-05-06T11:12:45;2.42;;;0.40;;
39930;SDS011;26635;-35.248;149.138;2023-05-06T11:26:22;6.57;;;2.70;;
39930;SDS011;26635;-35.248;149.138;2023-05-06T11:28:53;4.25;;;2.25;;
39930;SDS011;26635;-35.248;149.138;2023-05-06T11:31:29;5.07;;;2.28;;
39930;SDS011;26635;-35.248;149.138;2023-05-06T11:34:08;6.78;;;1.77;;
39930;SDS011;26635;-35.248;149.138;2023-05-06T11:37:02;3.40;;;1.17;;
39930;SDS011;26635;-35.248;149.138;2023-05-06T11:39:34;4.35;;;1.20;;
39930;SDS011;26635;-35.248;149.138;2023-05-06T11:42:07;4.22;;;1.42;;
39930;SDS011;26635;-35.248;149.138;2023-05-06T11:44:37;4.88;;;1.40;;
39930;SDS011;26635;-35.248;149.138;2023-05-06T11:47:08;3.58;;;1.33;;
39930;SDS011;26635;-35.248;149.138;2023-05-06T11:49:41;2.70;;;1.40;;
39930;SDS011;26635;-35.248;149.138;2023-05-06T11:52:12;4.80;;;1.67;;
39930;SDS011;26635;-35.248;149.138;2023-05-06T11:54:42;2.50;;;1.60;;
39930;SDS011;26635;-35.248;149.138;2023-05-06T11:57:15;3.90;;;1.20;;
39930;SDS011;26635;-35.248;149.138;2023-05-06T11:59:52;5.38;;;1.42;;
39930;SDS011;26635;-35.248;149.138;2023-05-06T12:02:23;3.25;;;1.17;;
39930;SDS011;26635;-35.248;149.138;2023-05-06T12:04:53;4.15;;;1.73;;
39930;SDS011;26635;-35.248;149.138;2023-05-06T12:07:25;4.30;;;1.55;;
39930;SDS011;26635;-35.248;149.138;2023-05-06T12:09:55;3.20;;;1.48;;
39930;SDS011;26635;-35.248;149.138;2023-05-06T12:12:26;6.55;;;1.70;;
39930;SDS011;26635;-35.248;149.138;2023-05-06T12:15:00;5.63;;;2.28;;
39930;SDS011;26635;-35.248;149.138;2023-05-06T12:17:31;5.10;;;2.08;;
39930;SDS011;26635;-35.248;149.138;2023-05-06T12:20:02;6.53;;;1.92;;
39930;SDS011;26635;-35.248;149.138;2023-05-06T12:22:33;3.70;;;1.30;;
39930;SDS011;26635;-35.248;149.138;2023-05-06T12:25:15;3.45;;;1.67;;
39930;SDS011;26635;-35.248;149.138;2023-05-06T12:27:46;6.72;;;1.45;;
39930;SDS011;26635;-35.248;149.138;2023-05-06T12:30:27;4.07;;;1.92;;
39930;SDS011;26635;-35.248;149.138;2023-05-06T12:33:00;3.13;;;1.20;;
39930;SDS011;26635;-35.248;149.138;2023-05-06T12:35:30;2.38;;;1.00;;
39930;SDS011;26635;-35.248;149.138;2023-05-06T12:38:14;3.58;;;1.00;;
39930;SDS011;26635;-35.248;149.138;2023-05-06T12:40:51;5.63;;;1.63;;
39930;SDS011;26635;-35.248;149.138;2023-05-06T12:46:04;3.35;;;1.10;;
39930;SDS011;26635;-35.248;149.138;2023-05-06T12:48:37;1.48;;;0.65;;
39930;SDS011;26635;-35.248;149.138;2023-05-06T12:51:17;3.53;;;0.85;;
39930;SDS011;26635;-35.248;149.138;2023-05-06T12:53:49;2.45;;;1.15;;
39930;SDS011;26635;-35.248;149.138;2023-05-06T12:56:20;2.58;;;1.05;;
39930;SDS011;26635;-35.248;149.138;2023-05-06T12:58:55;2.70;;;0.60;;
39930;SDS011;26635;-35.248;149.138;2023-05-06T13:01:30;2.35;;;1.08;;
39930;SDS011;26635;-35.248;149.138;2023-05-06T13:04:00;2.03;;;0.88;;
39930;SDS011;26635;-35.248;149.138;2023-05-06T13:06:30;2.50;;;1.42;;
39930;SDS011;26635;-35.248;149.138;2023-05-06T13:09:01;5.18;;;1.50;;
39930;SDS011;26635;-35.248;149.138;2023-05-06T13:11:32;3.03;;;1.10;;
39930;SDS011;26635;-35.248;149.138;2023-05-06T13:14:02;4.30;;;0.93;;
39930;SDS011;26635;-35.248;149.138;2023-05-06T13:16:32;2.83;;;1.20;;
39930;SDS011;26635;-35.248;149.138;2023-05-06T13:19:03;2.92;;;2.00;;
39930;SDS011;26635;-35.248;149.138;2023-05-06T13:21:41;3.47;;;1.50;;
39930;SDS011;26635;-35.248;149.138;2023-05-06T13:24:12;4.43;;;1.55;;
39930;SDS011;26635;-35.248;149.138;2023-05-06T13:26:43;3.38;;;1.50;;
39930;SDS011;26635;-35.248;149.138;2023-05-06T13:29:14;2.97;;;1.23;;
39930;SDS011;26635;-35.248;149.138;2023-05-06T13:31:45;3.40;;;1.20;;
39930;SDS011;26635;-35.248;149.138;2023-05-06T13:34:15;2.38;;;1.98;;
39930;SDS011;26635;-35.248;149.138;2023-05-06T13:36:47;3.38;;;1.00;;
39930;SDS011;26635;-35.248;149.138;2023-05-06T13:39:18;1.98;;;0.80;;
39930;SDS011;26635;-35.248;149.138;2023-05-06T13:41:49;1.38;;;0.88;;
39930;SDS011;26635;-35.248;149.138;2023-05-06T13:44:20;2.17;;;0.70;;
39930;SDS011;26635;-35.248;149.138;2023-05-06T13:46:52;1.73;;;0.57;;
39930;SDS011;26635;-35.248;149.138;2023-05-06T13:49:22;2.05;;;0.60;;
39930;SDS011;26635;-35.248;149.138;2023-05-06T13:51:52;1.40;;;0.57;;
39930;SDS011;26635;-35.248;149.138;2023-05-06T13:54:23;2.17;;;0.68;;
39930;SDS011;26635;-35.248;149.138;2023-05-06T13:56:53;0.95;;;0.47;;
39930;SDS011;26635;-35.248;149.138;2023-05-06T13:59:25;2.17;;;0.63;;
39930;SDS011;26635;-35.248;149.138;2023-05-06T14:01:57;2.20;;;0.68;;
39930;SDS011;26635;-35.248;149.138;2023-05-06T14:04:29;5.35;;;0.70;;
39930;SDS011;26635;-35.248;149.138;2023-05-06T14:07:00;1.95;;;0.93;;
39930;SDS011;26635;-35.248;149.138;2023-05-06T14:09:32;2.78;;;0.73;;
39930;SDS011;26635;-35.248;149.138;2023-05-06T14:12:04;2.67;;;0.60;;
39930;SDS011;26635;-35.248;149.138;2023-05-06T14:14:35;3.17;;;0.75;;
39930;SDS011;26635;-35.248;149.138;2023-05-06T14:17:12;2.72;;;0.70;;
39930;SDS011;26635;-35.248;149.138;2023-05-06T14:19:43;2.60;;;0.50;;
39930;SDS011;26635;-35.248;149.138;2023-05-06T14:22:14;1.13;;;0.60;;
39930;SDS011;26635;-35.248;149.138;2023-05-06T14:24:45;2.95;;;0.60;;
39930;SDS011;26635;-35.248;149.138;2023-05-06T14:27:16;2.05;;;0.60;;
39930;SDS011;26635;-35.248;149.138;2023-05-06T14:29:47;1.95;;;0.60;;
39930;SDS011;26635;-35.248;149.138;2023-05-06T14:32:17;2.88;;;1.00;;
39930;SDS011;26635;-35.248;149.138;2023-05-06T14:34:48;2.42;;;0.85;;
39930;SDS011;26635;-35.248;149.138;2023-05-06T14:37:18;1.38;;;0.63;;
39930;SDS011;26635;-35.248;149.138;2023-05-06T14:39:49;1.02;;;0.50;;
39930;SDS011;26635;-35.248;149.138;2023-05-06T14:42:21;3.28;;;0.77;;
39930;SDS011;26635;-35.248;149.138;2023-05-06T14:44:51;2.67;;;0.52;;
39930;SDS011;26635;-35.248;149.138;2023-05-06T14:47:24;1.42;;;0.50;;
39930;SDS011;26635;-35.248;149.138;2023-05-06T14:49:54;1.05;;;0.50;;
39930;SDS011;26635;-35.248;149.138;2023-05-06T14:52:25;3.85;;;0.50;;
39930;SDS011;26635;-35.248;149.138;2023-05-06T14:54:55;2.63;;;0.43;;
39930;SDS011;26635;-35.248;149.138;2023-05-06T14:57:25;1.92;;;0.32;;
39930;SDS011;26635;-35.248;149.138;2023-05-06T14:59:56;1.75;;;0.50;;
39930;SDS011;26635;-35.248;149.138;2023-05-06T15:02:27;0.55;;;0.35;;
39930;SDS011;26635;-35.248;149.138;2023-05-06T15:04:58;1.33;;;0.50;;
39930;SDS011;26635;-35.248;149.138;2023-05-06T15:07:30;4.35;;;0.50;;
39930;SDS011;26635;-35.248;149.138;2023-05-06T15:10:00;1.13;;;0.30;;
39930;SDS011;26635;-35.248;149.138;2023-05-06T15:12:31;3.47;;;0.47;;
39930;SDS011;26635;-35.248;149.138;2023-05-06T15:15:05;1.00;;;0.20;;